createdAt,value
2017-10-27T00:00:46.233Z,96.70
2017-10-27T00:01:46.246Z,97.08
2017-10-27T00:02:46.260Z,97.47
2017-10-27T00:03:25.199Z,97.47
2017-10-27T00:04:46.216Z,97.27
2017-10-27T00:05:46.241Z,97.27
2017-10-27T00:06:46.206Z,96.89
2017-10-27T00:07:25.183Z,97.27
2017-10-27T00:08:46.231Z,96.61
2017-10-27T00:09:46.212Z,96.80
2017-10-27T00:10:46.221Z,96.89
2017-10-27T00:11:25.165Z,97.47
2017-10-27T00:12:46.248Z,97.51
2017-10-27T00:13:46.228Z,96.98
2017-10-27T00:14:46.201Z,97.08
2017-10-27T00:15:25.142Z,96.98
2017-10-27T00:16:46.160Z,97.85
2017-10-27T00:17:46.140Z,97.94
2017-10-27T00:18:46.178Z,97.37
2017-10-27T00:19:25.131Z,98.03
2017-10-27T00:20:46.136Z,97.47
2017-10-27T00:21:46.124Z,97.18
2017-10-27T00:22:46.134Z,97.47
2017-10-27T00:23:25.111Z,98.03
2017-10-27T00:24:46.157Z,97.27
2017-10-27T00:25:46.120Z,97.47
2017-10-27T00:26:46.150Z,97.08
2017-10-27T00:27:25.083Z,97.08
2017-10-27T00:28:46.096Z,97.56
2017-10-27T00:29:46.092Z,97.56
2017-10-27T00:30:47.563Z,97.18
2017-10-27T00:31:25.080Z,96.89
2017-10-27T00:32:46.080Z,96.80
2017-10-27T00:33:46.078Z,96.89
2017-10-27T00:34:46.068Z,96.89
2017-10-27T00:35:25.060Z,97.56
2017-10-27T00:36:46.054Z,97.37
2017-10-27T00:37:46.060Z,97.47
2017-10-27T00:38:46.045Z,97.47
2017-10-27T00:39:25.037Z,97.94
2017-10-27T00:40:46.040Z,98.03
2017-10-27T00:41:46.049Z,97.27
2017-10-27T00:42:46.035Z,97.56
2017-10-27T00:43:25.023Z,97.18
2017-10-27T00:44:46.025Z,97.47
2017-10-27T00:45:46.031Z,98.03
2017-10-27T00:46:46.024Z,97.37
2017-10-27T00:47:25.009Z,97.37
2017-10-27T00:48:46.009Z,97.47
2017-10-27T00:49:46.006Z,97.18
2017-10-27T00:50:46.025Z,97.94
2017-10-27T00:51:24.987Z,97.75
2017-10-27T00:52:45.996Z,97.56
2017-10-27T00:53:45.981Z,97.47
2017-10-27T00:54:45.978Z,98.23
2017-10-27T00:55:24.976Z,97.85
2017-10-27T00:56:45.975Z,97.85
2017-10-27T00:57:45.972Z,97.37
2017-10-27T00:58:45.965Z,97.37
2017-10-27T00:59:24.953Z,97.66
2017-10-27T01:00:45.959Z,97.56
2017-10-27T01:01:45.969Z,97.27
2017-10-27T01:02:45.959Z,97.08
2017-10-27T01:03:24.940Z,97.56
2017-10-27T01:04:45.945Z,97.18
2017-10-27T01:05:45.938Z,97.47
2017-10-27T01:06:45.938Z,97.56
2017-10-27T01:07:24.925Z,97.37
2017-10-27T01:08:45.956Z,97.47
2017-10-27T01:09:45.928Z,97.27
2017-10-27T01:10:45.916Z,97.56
2017-10-27T01:11:24.902Z,97.94
2017-10-27T01:12:45.919Z,97.94
2017-10-27T01:13:45.902Z,97.75
2017-10-27T01:14:45.899Z,97.18
2017-10-27T01:15:24.887Z,97.37
2017-10-27T01:16:45.897Z,97.56
2017-10-27T01:17:45.880Z,98.13
2017-10-27T01:18:45.880Z,98.03
2017-10-27T01:19:24.863Z,97.66
2017-10-27T01:20:45.873Z,97.66
2017-10-27T01:21:45.874Z,98.03
2017-10-27T01:22:46.269Z,98.13
2017-10-27T01:23:24.849Z,97.94
2017-10-27T01:24:45.859Z,98.03
2017-10-27T01:25:45.851Z,97.18
2017-10-27T01:26:45.855Z,98.03
2017-10-27T01:27:24.842Z,98.03
2017-10-27T01:28:45.839Z,98.03
2017-10-27T01:29:45.845Z,97.85
2017-10-27T01:30:45.830Z,97.56
2017-10-27T01:31:24.822Z,97.47
2017-10-27T01:32:45.823Z,97.56
2017-10-27T01:33:45.820Z,97.94
2017-10-27T01:34:45.815Z,97.85
2017-10-27T01:35:24.794Z,97.47
2017-10-27T01:36:45.808Z,97.27
2017-10-27T01:37:45.800Z,97.18
2017-10-27T01:38:45.803Z,97.56
2017-10-27T01:39:24.792Z,97.47
2017-10-27T01:40:45.798Z,96.89
2017-10-27T01:41:45.785Z,96.89
2017-10-27T01:42:45.782Z,97.27
2017-10-27T01:43:24.808Z,97.37
2017-10-27T01:44:45.775Z,97.27
2017-10-27T01:45:45.767Z,96.98
2017-10-27T01:46:45.775Z,96.89
2017-10-27T01:47:24.755Z,97.18
2017-10-27T01:48:45.763Z,96.98
2017-10-27T01:49:45.765Z,97.18
2017-10-27T01:50:45.750Z,97.18
2017-10-27T01:51:24.738Z,96.42
2017-10-27T01:52:45.737Z,96.89
2017-10-27T01:53:45.733Z,96.70
2017-10-27T01:54:45.729Z,96.89
2017-10-27T01:55:24.713Z,96.70
2017-10-27T01:56:45.719Z,97.18
2017-10-27T01:57:45.714Z,96.80
2017-10-27T01:58:45.715Z,96.51
2017-10-27T01:59:24.703Z,96.98
2017-10-27T02:00:45.705Z,96.42
2017-10-27T02:01:45.697Z,97.08
2017-10-27T02:02:45.706Z,96.80
2017-10-27T02:03:24.680Z,96.70
2017-10-27T02:04:45.686Z,96.61
2017-10-27T02:05:45.681Z,96.89
2017-10-27T02:06:45.679Z,96.80
2017-10-27T02:07:24.666Z,96.70
2017-10-27T02:08:45.669Z,96.42
2017-10-27T02:09:45.661Z,96.61
2017-10-27T02:10:45.665Z,96.80
2017-10-27T02:11:24.648Z,96.89
2017-10-27T02:12:45.656Z,97.27
2017-10-27T02:13:45.655Z,96.98
2017-10-27T02:14:45.643Z,96.70
2017-10-27T02:15:24.634Z,97.27
2017-10-27T02:16:45.630Z,96.89
2017-10-27T02:17:45.629Z,96.70
2017-10-27T02:18:45.624Z,96.51
2017-10-27T02:19:24.614Z,96.22
2017-10-27T02:20:45.625Z,96.89
2017-10-27T02:21:45.612Z,96.42
2017-10-27T02:22:45.612Z,96.22
2017-10-27T02:23:24.599Z,96.80
2017-10-27T02:24:45.600Z,96.70
2017-10-27T02:25:45.601Z,96.75
2017-10-27T02:26:45.595Z,96.80
2017-10-27T02:27:24.581Z,96.37
2017-10-27T02:28:45.586Z,96.37
2017-10-27T02:29:45.578Z,96.27
2017-10-27T02:30:45.576Z,96.37
2017-10-27T02:31:24.566Z,95.79
2017-10-27T02:32:45.600Z,95.98
2017-10-27T02:33:45.568Z,96.46
2017-10-27T02:34:45.558Z,96.46
2017-10-27T02:35:24.550Z,96.08
2017-10-27T02:36:45.548Z,96.27
2017-10-27T02:37:45.550Z,96.46
2017-10-27T02:38:45.541Z,96.27
2017-10-27T02:39:24.534Z,95.79
2017-10-27T02:40:45.530Z,96.46
2017-10-27T02:41:45.529Z,96.94
2017-10-27T02:42:45.529Z,96.46
2017-10-27T02:43:24.524Z,96.75
2017-10-27T02:44:45.518Z,96.66
2017-10-27T02:45:45.550Z,96.46
2017-10-27T02:46:45.510Z,96.66
2017-10-27T02:47:24.510Z,96.46
2017-10-27T02:48:45.501Z,96.66
2017-10-27T02:49:45.499Z,96.84
2017-10-27T02:50:45.493Z,96.94
2017-10-27T02:51:24.484Z,96.84
2017-10-27T02:52:45.489Z,97.23
2017-10-27T02:53:45.519Z,97.03
2017-10-27T02:54:45.480Z,97.52
2017-10-27T02:55:24.464Z,97.23
2017-10-27T02:56:45.478Z,96.27
2017-10-27T02:57:45.471Z,95.32
2017-10-27T02:58:45.470Z,94.74
2017-10-27T02:59:24.449Z,93.31
2017-10-27T03:00:45.452Z,91.69
2017-10-27T03:01:45.446Z,91.02
2017-10-27T03:02:45.444Z,89.20
2017-10-27T03:03:24.437Z,87.91
2017-10-27T03:04:45.440Z,86.76
2017-10-27T03:05:45.528Z,86.47
2017-10-27T03:06:45.426Z,86.76
2017-10-27T03:07:24.419Z,86.63
2017-10-27T03:08:45.420Z,86.43
2017-10-27T03:09:45.417Z,86.53
2017-10-27T03:10:45.407Z,86.05
2017-10-27T03:11:24.399Z,86.05
2017-10-27T03:12:45.405Z,85.67
2017-10-27T03:13:45.394Z,85.48
2017-10-27T03:14:45.400Z,85.58
2017-10-27T03:15:24.391Z,84.23
2017-10-27T03:16:45.391Z,85.67
2017-10-27T03:17:45.375Z,85.38
2017-10-27T03:18:45.374Z,86.63
2017-10-27T03:19:24.367Z,86.63
2017-10-27T03:20:45.380Z,87.29
2017-10-27T03:21:45.406Z,88.25
2017-10-27T03:22:45.356Z,88.06
2017-10-27T03:23:24.348Z,89.54
2017-10-27T03:24:45.355Z,89.49
2017-10-27T03:25:45.348Z,90.50
2017-10-27T03:26:45.344Z,90.02
2017-10-27T03:27:24.332Z,90.40
2017-10-27T03:28:45.336Z,90.78
2017-10-27T03:29:45.324Z,90.69
2017-10-27T03:30:45.325Z,90.78
2017-10-27T03:31:24.310Z,91.74
2017-10-27T03:32:45.320Z,91.36
2017-10-27T03:33:45.313Z,91.83
2017-10-27T03:34:45.303Z,91.60
2017-10-27T03:35:25.584Z,91.36
2017-10-27T03:36:45.298Z,91.26
2017-10-27T03:37:45.293Z,90.97
2017-10-27T03:38:45.290Z,90.36
2017-10-27T03:39:24.274Z,91.31
2017-10-27T03:40:45.280Z,91.88
2017-10-27T03:41:45.288Z,91.78
2017-10-27T03:42:45.274Z,91.31
2017-10-27T03:43:24.260Z,91.69
2017-10-27T03:44:45.262Z,91.12
2017-10-27T03:45:45.275Z,91.88
2017-10-27T03:46:45.254Z,91.60
2017-10-27T03:47:24.253Z,91.98
2017-10-27T03:48:45.251Z,91.41
2017-10-27T03:49:45.242Z,91.12
2017-10-27T03:50:45.231Z,91.21
2017-10-27T03:51:24.222Z,91.50
2017-10-27T03:52:45.228Z,92.83
2017-10-27T03:53:45.219Z,93.02
2017-10-27T03:54:45.255Z,93.98
2017-10-27T03:55:24.206Z,93.41
2017-10-27T03:56:45.221Z,93.79
2017-10-27T03:57:45.206Z,93.88
2017-10-27T03:58:45.199Z,94.07
2017-10-27T03:59:24.193Z,93.79
2017-10-27T04:00:45.193Z,94.84
2017-10-27T04:01:45.183Z,94.65
2017-10-27T04:02:45.187Z,95.41
2017-10-27T04:03:24.176Z,94.79
2017-10-27T04:04:45.175Z,94.93
2017-10-27T04:05:45.165Z,95.03
2017-10-27T04:06:45.171Z,95.17
2017-10-27T04:07:24.151Z,95.61
2017-10-27T04:08:45.150Z,96.37
2017-10-27T04:09:45.155Z,96.32
2017-10-27T04:10:45.150Z,96.66
2017-10-27T04:11:24.139Z,96.80
2017-10-27T04:12:45.141Z,96.98
2017-10-27T04:13:45.134Z,96.70
2017-10-27T04:14:45.132Z,96.89
2017-10-27T04:15:24.119Z,97.17
2017-10-27T04:16:45.117Z,97.17
2017-10-27T04:17:45.116Z,96.80
2017-10-27T04:18:45.111Z,97.27
2017-10-27T04:19:24.103Z,97.75
2017-10-27T04:20:45.102Z,97.17
2017-10-27T04:21:45.101Z,97.51
2017-10-27T04:22:45.096Z,98.13
2017-10-27T04:23:24.081Z,98.37
2017-10-27T04:24:45.089Z,98.13
2017-10-27T04:25:45.078Z,98.22
2017-10-27T04:26:45.079Z,99.37
2017-10-27T04:27:24.065Z,99.08
2017-10-27T04:28:45.205Z,98.70
2017-10-27T04:29:45.058Z,98.42
2017-10-27T04:30:45.057Z,98.51
2017-10-27T04:31:24.047Z,98.99
2017-10-27T04:32:45.043Z,98.99
2017-10-27T04:33:45.047Z,99.27
2017-10-27T04:34:45.037Z,99.52
2017-10-27T04:35:24.049Z,99.66
2017-10-27T04:36:45.030Z,99.37
2017-10-27T04:37:45.026Z,99.95
2017-10-27T04:38:45.022Z,99.37
2017-10-27T04:39:24.007Z,99.46
2017-10-27T04:40:45.013Z,99.99
2017-10-27T04:41:45.004Z,99.56
2017-10-27T04:42:45.003Z,99.85
2017-10-27T04:43:23.994Z,99.85
2017-10-27T04:44:44.990Z,99.85
2017-10-27T04:45:44.992Z,99.95
2017-10-27T04:46:44.988Z,99.56
2017-10-27T04:47:23.975Z,99.85
2017-10-27T04:48:44.978Z,99.66
2017-10-27T04:49:44.972Z,99.99
2017-10-27T04:50:44.971Z,99.85
2017-10-27T04:51:23.961Z,99.99
2017-10-27T04:52:44.961Z,99.99
2017-10-27T04:53:44.949Z,99.99
2017-10-27T04:54:44.951Z,99.99
2017-10-27T04:55:23.970Z,99.99
2017-10-27T04:56:44.938Z,99.75
2017-10-27T04:57:44.933Z,99.08
2017-10-27T04:58:44.930Z,99.56
2017-10-27T04:59:23.920Z,98.94
2017-10-27T05:00:44.922Z,99.27
2017-10-27T05:01:44.923Z,99.04
2017-10-27T05:02:44.917Z,98.66
2017-10-27T05:03:23.908Z,99.04
2017-10-27T05:04:44.902Z,99.04
2017-10-27T05:05:44.900Z,98.47
2017-10-27T05:06:44.893Z,98.32
2017-10-27T05:07:23.880Z,98.47
2017-10-27T05:08:44.894Z,98.37
2017-10-27T05:09:44.877Z,99.32
2017-10-27T05:10:44.874Z,99.32
2017-10-27T05:11:23.861Z,98.94
2017-10-27T05:12:44.866Z,98.75
2017-10-27T05:13:44.865Z,98.56
2017-10-27T05:14:44.856Z,98.85
2017-10-27T05:15:23.852Z,98.47
2017-10-27T05:16:44.856Z,98.66
2017-10-27T05:17:44.844Z,99.32
2017-10-27T05:18:44.841Z,99.04
2017-10-27T05:19:23.830Z,98.66
2017-10-27T05:20:44.829Z,99.32
2017-10-27T05:21:44.821Z,99.42
2017-10-27T05:22:44.824Z,99.52
2017-10-27T05:23:23.813Z,99.61
2017-10-27T05:24:44.810Z,99.52
2017-10-27T05:25:44.811Z,99.52
2017-10-27T05:26:44.799Z,99.23
2017-10-27T05:27:23.796Z,98.47
2017-10-27T05:28:44.795Z,98.94
2017-10-27T05:29:44.795Z,99.23
2017-10-27T05:30:44.784Z,99.23
2017-10-27T05:31:23.775Z,99.52
2017-10-27T05:32:44.777Z,99.23
2017-10-27T05:33:44.769Z,98.47
2017-10-27T05:34:44.763Z,98.18
2017-10-27T05:35:23.752Z,97.80
2017-10-27T05:36:44.755Z,98.56
2017-10-27T05:37:44.748Z,98.08
2017-10-27T05:38:44.740Z,98.37
2017-10-27T05:39:23.731Z,98.18
2017-10-27T05:40:44.733Z,98.66
2017-10-27T05:41:44.734Z,97.99
2017-10-27T05:42:44.723Z,98.42
2017-10-27T05:43:23.714Z,97.75
2017-10-27T05:44:44.720Z,97.80
2017-10-27T05:45:44.715Z,97.37
2017-10-27T05:46:44.711Z,97.22
2017-10-27T05:47:23.697Z,97.94
2017-10-27T05:48:44.697Z,97.94
2017-10-27T05:49:44.687Z,97.75
2017-10-27T05:50:44.690Z,98.22
2017-10-27T05:51:23.678Z,97.94
2017-10-27T05:52:44.677Z,98.13
2017-10-27T05:53:44.675Z,98.03
2017-10-27T05:54:44.670Z,97.94
2017-10-27T05:55:23.660Z,98.03
2017-10-27T05:56:44.660Z,97.27
2017-10-27T05:57:44.656Z,96.66
2017-10-27T05:58:44.660Z,96.41
2017-10-27T05:59:23.646Z,95.98
2017-10-27T06:00:44.660Z,95.79
2017-10-27T06:01:44.673Z,95.61
2017-10-27T06:02:44.630Z,94.93
2017-10-27T06:03:23.619Z,95.12
2017-10-27T06:04:44.649Z,93.98
2017-10-27T06:05:44.622Z,94.46
2017-10-27T06:06:44.611Z,93.41
2017-10-27T06:07:23.612Z,93.88
2017-10-27T06:08:44.607Z,94.07
2017-10-27T06:09:44.602Z,93.02
2017-10-27T06:10:44.602Z,93.22
2017-10-27T06:11:23.585Z,93.12
2017-10-27T06:12:44.587Z,93.22
2017-10-27T06:13:44.580Z,93.31
2017-10-27T06:14:44.578Z,93.22
2017-10-27T06:15:23.565Z,93.12
2017-10-27T06:16:44.568Z,93.41
2017-10-27T06:17:45.148Z,93.88
2017-10-27T06:18:44.556Z,93.88
2017-10-27T06:19:23.540Z,93.12
2017-10-27T06:20:44.544Z,94.07
2017-10-27T06:21:44.544Z,93.51
2017-10-27T06:22:44.536Z,93.02
2017-10-27T06:23:23.528Z,93.22
2017-10-27T06:24:44.543Z,93.60
2017-10-27T06:25:44.529Z,93.98
2017-10-27T06:26:44.522Z,94.07
2017-10-27T06:27:23.524Z,93.22
2017-10-27T06:28:44.508Z,92.93
2017-10-27T06:29:44.501Z,93.12
2017-10-27T06:30:44.498Z,92.93
2017-10-27T06:31:23.495Z,92.46
2017-10-27T06:32:44.501Z,92.17
2017-10-27T06:33:44.487Z,91.88
2017-10-27T06:34:44.485Z,92.07
2017-10-27T06:35:23.475Z,92.65
2017-10-27T06:36:44.475Z,91.98
2017-10-27T06:37:44.468Z,91.69
2017-10-27T06:38:44.469Z,90.83
2017-10-27T06:39:23.450Z,90.83
2017-10-27T06:40:44.460Z,91.60
2017-10-27T06:41:44.508Z,91.60
2017-10-27T06:42:44.443Z,91.60
2017-10-27T06:43:23.431Z,92.36
2017-10-27T06:44:44.437Z,92.93
2017-10-27T06:45:44.426Z,92.55
2017-10-27T06:46:44.427Z,93.02
2017-10-27T06:47:23.434Z,93.02
2017-10-27T06:48:44.417Z,94.03
2017-10-27T06:49:44.416Z,93.79
2017-10-27T06:50:44.410Z,94.17
2017-10-27T06:51:23.398Z,94.03
2017-10-27T06:52:44.393Z,94.12
2017-10-27T06:53:44.398Z,94.93
2017-10-27T06:54:44.393Z,94.70
2017-10-27T06:55:23.381Z,93.93
2017-10-27T06:56:44.381Z,94.79
2017-10-27T06:57:44.368Z,94.60
2017-10-27T06:58:44.367Z,94.32
2017-10-27T06:59:23.361Z,92.46
2017-10-27T07:00:44.359Z,91.88
2017-10-27T07:01:44.359Z,91.60
2017-10-27T07:02:44.347Z,90.83
2017-10-27T07:03:23.336Z,90.73
2017-10-27T07:04:44.352Z,90.93
2017-10-27T07:05:44.333Z,91.21
2017-10-27T07:06:44.336Z,91.31
2017-10-27T07:07:23.317Z,91.78
2017-10-27T07:08:44.326Z,91.78
2017-10-27T07:09:44.326Z,91.41
2017-10-27T07:10:44.308Z,91.31
2017-10-27T07:11:23.300Z,91.41
2017-10-27T07:12:44.302Z,91.02
2017-10-27T07:13:44.302Z,91.12
2017-10-27T07:14:44.293Z,90.83
2017-10-27T07:15:23.311Z,90.83
2017-10-27T07:16:44.283Z,90.55
2017-10-27T07:17:44.281Z,90.17
2017-10-27T07:18:44.278Z,90.50
2017-10-27T07:19:23.282Z,91.07
2017-10-27T07:20:44.269Z,90.02
2017-10-27T07:21:44.259Z,90.26
2017-10-27T07:22:44.253Z,89.78
2017-10-27T07:23:23.279Z,90.31
2017-10-27T07:24:44.244Z,90.02
2017-10-27T07:25:44.239Z,88.87
2017-10-27T07:26:44.238Z,89.35
2017-10-27T07:27:23.226Z,88.87
2017-10-27T07:28:44.228Z,89.54
2017-10-27T07:29:44.223Z,89.35
2017-10-27T07:30:44.222Z,88.01
2017-10-27T07:31:23.257Z,87.73
2017-10-27T07:32:44.212Z,87.44
2017-10-27T07:33:44.208Z,86.39
2017-10-27T07:34:44.207Z,85.91
2017-10-27T07:35:23.208Z,86.77
2017-10-27T07:36:44.194Z,87.15
2017-10-27T07:37:44.191Z,87.87
2017-10-27T07:38:44.184Z,87.82
2017-10-27T07:39:23.192Z,87.01
2017-10-27T07:40:44.187Z,87.15
2017-10-27T07:41:44.170Z,87.01
2017-10-27T07:42:44.164Z,85.48
2017-10-27T07:43:23.207Z,85.67
2017-10-27T07:44:44.159Z,85.58
2017-10-27T07:45:44.157Z,84.33
2017-10-27T07:46:44.144Z,85.58
2017-10-27T07:47:23.141Z,85.38
2017-10-27T07:48:44.138Z,84.05
2017-10-27T07:49:44.133Z,83.00
2017-10-27T07:50:44.130Z,84.33
2017-10-27T07:51:23.121Z,83.09
2017-10-27T07:52:44.123Z,82.81
2017-10-27T07:53:44.119Z,82.71
2017-10-27T07:54:44.114Z,82.81
2017-10-27T07:55:23.162Z,82.42
2017-10-27T07:56:44.105Z,83.28
2017-10-27T07:57:44.098Z,83.09
2017-10-27T07:58:44.102Z,84.33
2017-10-27T07:59:23.091Z,83.86
2017-10-27T08:00:44.095Z,84.23
2017-10-27T08:01:44.081Z,84.62
2017-10-27T08:02:44.082Z,84.43
2017-10-27T08:03:23.067Z,84.52
2017-10-27T08:04:44.071Z,83.95
2017-10-27T08:05:44.066Z,84.23
2017-10-27T08:06:44.060Z,82.81
2017-10-27T08:07:23.076Z,82.90
2017-10-27T08:08:44.064Z,82.23
2017-10-27T08:09:44.050Z,82.23
2017-10-27T08:10:44.050Z,82.42
2017-10-27T08:11:23.048Z,83.86
2017-10-27T08:12:44.034Z,84.62
2017-10-27T08:13:44.037Z,83.38
2017-10-27T08:14:44.025Z,83.57
2017-10-27T08:15:23.085Z,82.32
2017-10-27T08:16:44.022Z,81.85
2017-10-27T08:17:44.012Z,81.95
2017-10-27T08:18:44.012Z,82.61
2017-10-27T08:19:23.290Z,82.90
2017-10-27T08:20:44.003Z,81.76
2017-10-27T08:21:43.999Z,82.04
2017-10-27T08:22:43.990Z,82.81
2017-10-27T08:23:23.012Z,83.09
2017-10-27T08:24:43.986Z,81.85
2017-10-27T08:25:43.982Z,82.14
2017-10-27T08:26:43.979Z,82.32
2017-10-27T08:27:23.014Z,82.42
2017-10-27T08:28:43.970Z,82.37
2017-10-27T08:29:43.961Z,81.99
2017-10-27T08:30:43.958Z,80.65
2017-10-27T08:31:23.655Z,79.79
2017-10-27T08:32:43.950Z,79.93
2017-10-27T08:33:43.947Z,78.83
2017-10-27T08:34:43.942Z,78.58
2017-10-27T08:35:22.979Z,78.97
2017-10-27T08:36:43.934Z,79.16
2017-10-27T08:37:43.934Z,78.58
2017-10-27T08:38:43.933Z,79.02
2017-10-27T08:39:22.926Z,79.31
2017-10-27T08:40:43.924Z,79.22
2017-10-27T08:41:43.917Z,80.36
2017-10-27T08:42:43.913Z,79.31
2017-10-27T08:43:22.903Z,79.69
2017-10-27T08:44:43.904Z,79.60
2017-10-27T08:45:43.897Z,79.31
2017-10-27T08:46:43.909Z,79.88
2017-10-27T08:47:22.885Z,79.60
2017-10-27T08:48:43.887Z,79.69
2017-10-27T08:49:43.884Z,78.83
2017-10-27T08:50:43.887Z,79.02
2017-10-27T08:51:22.867Z,79.12
2017-10-27T08:52:43.883Z,79.60
2017-10-27T08:53:43.874Z,79.64
2017-10-27T08:54:43.863Z,77.87
2017-10-27T08:55:22.860Z,76.16
2017-10-27T08:56:43.853Z,76.92
2017-10-27T08:57:43.852Z,76.54
2017-10-27T08:58:43.848Z,77.01
2017-10-27T08:59:24.229Z,76.92
2017-10-27T09:00:45.203Z,77.87
2017-10-27T09:01:43.832Z,77.87
2017-10-27T09:02:43.833Z,78.07
2017-10-27T09:03:22.823Z,78.13
2017-10-27T09:04:43.827Z,78.70
2017-10-27T09:05:43.819Z,77.69
2017-10-27T09:06:43.820Z,78.36
2017-10-27T09:07:22.803Z,77.01
2017-10-27T09:08:43.810Z,77.97
2017-10-27T09:09:43.802Z,78.55
2017-10-27T09:10:43.800Z,78.07
2017-10-27T09:11:22.790Z,78.26
2017-10-27T09:12:43.791Z,76.92
2017-10-27T09:13:43.790Z,76.48
2017-10-27T09:14:43.801Z,76.39
2017-10-27T09:15:22.772Z,75.91
2017-10-27T09:16:43.795Z,74.57
2017-10-27T09:17:43.773Z,74.38
2017-10-27T09:18:43.765Z,74.85
2017-10-27T09:19:22.756Z,75.01
2017-10-27T09:20:43.778Z,74.44
2017-10-27T09:21:43.757Z,73.86
2017-10-27T09:22:43.750Z,74.34
2017-10-27T09:23:22.735Z,74.44
2017-10-27T09:24:43.768Z,74.53
2017-10-27T09:25:43.754Z,74.53
2017-10-27T09:26:43.749Z,74.82
2017-10-27T09:27:22.726Z,74.82
2017-10-27T09:28:43.752Z,75.74
2017-10-27T09:29:43.721Z,75.78
2017-10-27T09:30:43.720Z,75.83
2017-10-27T09:31:22.729Z,74.78
2017-10-27T09:32:43.711Z,75.16
2017-10-27T09:33:43.707Z,75.16
2017-10-27T09:34:43.703Z,76.03
2017-10-27T09:35:22.688Z,76.25
2017-10-27T09:36:43.696Z,76.92
2017-10-27T09:37:43.692Z,76.92
2017-10-27T09:38:43.688Z,76.25
2017-10-27T09:39:22.673Z,75.74
2017-10-27T09:40:43.718Z,76.50
2017-10-27T09:41:43.681Z,76.69
2017-10-27T09:42:43.726Z,76.79
2017-10-27T09:43:22.655Z,76.60
2017-10-27T09:44:43.724Z,75.93
2017-10-27T09:45:43.719Z,75.78
2017-10-27T09:46:43.645Z,75.20
2017-10-27T09:47:22.638Z,74.91
2017-10-27T09:48:43.672Z,73.96
2017-10-27T09:49:43.638Z,73.39
2017-10-27T09:50:43.682Z,74.24
2017-10-27T09:51:22.635Z,73.39
2017-10-27T09:52:43.632Z,73.10
2017-10-27T09:53:43.639Z,73.39
2017-10-27T09:54:43.624Z,72.62
2017-10-27T09:55:22.605Z,72.43
2017-10-27T09:56:43.610Z,72.24
2017-10-27T09:57:43.649Z,71.57
2017-10-27T09:58:43.604Z,71.70
2017-10-27T09:59:22.596Z,72.08
2017-10-27T10:00:43.639Z,72.94
2017-10-27T10:01:43.615Z,72.47
2017-10-27T10:02:43.651Z,72.28
2017-10-27T10:03:22.573Z,70.36
2017-10-27T10:04:43.708Z,69.41
2017-10-27T10:05:43.613Z,70.07
2017-10-27T10:06:43.646Z,70.56
2017-10-27T10:07:22.556Z,70.07
2017-10-27T10:08:43.563Z,70.97
2017-10-27T10:09:43.590Z,69.64
2017-10-27T10:10:43.579Z,69.44
2017-10-27T10:11:22.543Z,69.25
2017-10-27T10:12:43.555Z,69.25
2017-10-27T10:13:43.566Z,69.44
2017-10-27T10:14:43.584Z,67.24
2017-10-27T10:15:22.533Z,67.43
2017-10-27T10:16:43.574Z,67.91
2017-10-27T10:17:43.578Z,66.67
2017-10-27T10:18:43.560Z,66.76
2017-10-27T10:19:22.508Z,67.82
2017-10-27T10:20:43.591Z,67.53
2017-10-27T10:21:43.507Z,67.82
2017-10-27T10:22:43.512Z,67.05
2017-10-27T10:23:22.491Z,66.76
2017-10-27T10:24:43.498Z,65.33
2017-10-27T10:25:43.505Z,65.61
2017-10-27T10:26:43.526Z,65.90
2017-10-27T10:27:22.476Z,68.01
2017-10-27T10:28:43.481Z,67.43
2017-10-27T10:29:43.513Z,66.19
2017-10-27T10:30:43.500Z,64.28
2017-10-27T10:31:22.472Z,64.75
2017-10-27T10:32:43.485Z,64.09
2017-10-27T10:33:43.483Z,63.32
2017-10-27T10:34:43.467Z,63.42
2017-10-27T10:35:22.450Z,63.93
2017-10-27T10:36:43.449Z,63.73
2017-10-27T10:37:43.443Z,64.50
2017-10-27T10:38:43.440Z,63.99
2017-10-27T10:39:22.454Z,65.14
2017-10-27T10:40:43.440Z,65.52
2017-10-27T10:41:43.431Z,66.09
2017-10-27T10:42:43.433Z,65.04
2017-10-27T10:43:22.417Z,64.69
2017-10-27T10:44:43.425Z,64.22
2017-10-27T10:45:43.413Z,64.98
2017-10-27T10:46:43.422Z,64.59
2017-10-27T10:47:22.402Z,63.64
2017-10-27T10:48:43.422Z,62.87
2017-10-27T10:49:43.418Z,63.45
2017-10-27T10:50:44.261Z,64.43
2017-10-27T10:51:22.391Z,62.20
2017-10-27T10:52:43.398Z,62.59
2017-10-27T10:53:43.383Z,63.64
2017-10-27T10:54:43.378Z,63.64
2017-10-27T10:55:22.376Z,64.22
2017-10-27T10:56:43.380Z,64.12
2017-10-27T10:57:43.376Z,64.59
2017-10-27T10:58:43.366Z,64.56
2017-10-27T10:59:22.356Z,64.22
2017-10-27T11:00:43.361Z,65.36
2017-10-27T11:01:43.362Z,64.31
2017-10-27T11:02:43.354Z,64.31
2017-10-27T11:03:22.341Z,65.26
2017-10-27T11:04:43.346Z,64.59
2017-10-27T11:05:43.347Z,64.79
2017-10-27T11:06:43.338Z,63.45
2017-10-27T11:07:22.331Z,63.67
2017-10-27T11:08:43.333Z,63.57
2017-10-27T11:09:43.331Z,62.23
2017-10-27T11:10:43.334Z,62.14
2017-10-27T11:11:22.315Z,61.76
2017-10-27T11:12:43.329Z,61.85
2017-10-27T11:13:43.317Z,62.23
2017-10-27T11:14:43.321Z,62.81
2017-10-27T11:15:22.308Z,62.65
2017-10-27T11:16:43.311Z,62.46
2017-10-27T11:17:43.310Z,62.26
2017-10-27T11:18:43.303Z,60.89
2017-10-27T11:19:22.301Z,61.47
2017-10-27T11:20:43.311Z,61.37
2017-10-27T11:21:43.292Z,61.57
2017-10-27T11:22:43.301Z,61.28
2017-10-27T11:23:22.286Z,62.20
2017-10-27T11:24:43.289Z,61.63
2017-10-27T11:25:43.289Z,60.67
2017-10-27T11:26:43.288Z,60.10
2017-10-27T11:27:22.278Z,60.45
2017-10-27T11:28:43.277Z,61.02
2017-10-27T11:29:43.272Z,60.26
2017-10-27T11:30:43.273Z,60.06
2017-10-27T11:31:22.263Z,60.64
2017-10-27T11:32:43.261Z,60.45
2017-10-27T11:33:43.263Z,59.81
2017-10-27T11:34:43.264Z,60.67
2017-10-27T11:35:22.256Z,60.58
2017-10-27T11:36:44.211Z,59.14
2017-10-27T11:37:43.251Z,59.91
2017-10-27T11:38:43.246Z,60.10
2017-10-27T11:39:22.235Z,59.11
2017-10-27T11:40:43.243Z,59.05
2017-10-27T11:41:43.237Z,58.76
2017-10-27T11:42:43.234Z,59.14
2017-10-27T11:43:22.230Z,57.51
2017-10-27T11:44:43.231Z,56.75
2017-10-27T11:45:43.221Z,57.54
2017-10-27T11:46:43.221Z,58.50
2017-10-27T11:47:22.209Z,59.01
2017-10-27T11:48:43.219Z,59.11
2017-10-27T11:49:43.212Z,57.67
2017-10-27T11:50:43.209Z,56.77
2017-10-27T11:51:22.199Z,56.49
2017-10-27T11:52:43.203Z,56.75
2017-10-27T11:53:43.204Z,57.35
2017-10-27T11:54:43.201Z,57.16
2017-10-27T11:55:22.187Z,56.77
2017-10-27T11:56:43.196Z,58.59
2017-10-27T11:57:43.200Z,59.17
2017-10-27T11:58:43.194Z,58.69
2017-10-27T11:59:22.180Z,58.02
2017-10-27T12:00:43.183Z,58.91
2017-10-27T12:01:43.185Z,57.57
2017-10-27T12:02:43.172Z,58.62
2017-10-27T12:03:22.179Z,58.91
2017-10-27T12:04:43.177Z,58.24
2017-10-27T12:05:43.170Z,59.11
2017-10-27T12:06:43.172Z,58.53
2017-10-27T12:07:22.155Z,58.50
2017-10-27T12:08:43.163Z,58.98
2017-10-27T12:09:43.157Z,59.08
2017-10-27T12:10:43.169Z,59.77
2017-10-27T12:11:22.143Z,59.77
2017-10-27T12:12:43.149Z,59.11
2017-10-27T12:13:43.144Z,57.48
2017-10-27T12:14:43.150Z,57.09
2017-10-27T12:15:22.135Z,57.67
2017-10-27T12:16:43.136Z,56.81
2017-10-27T12:17:43.137Z,57.38
2017-10-27T12:18:43.146Z,57.76
2017-10-27T12:19:22.125Z,58.24
2017-10-27T12:20:43.132Z,58.15
2017-10-27T12:21:43.126Z,58.81
2017-10-27T12:22:43.128Z,58.15
2017-10-27T12:23:22.115Z,57.67
2017-10-27T12:24:43.123Z,58.53
2017-10-27T12:25:43.119Z,58.34
2017-10-27T12:26:43.116Z,58.69
2017-10-27T12:27:22.106Z,59.17
2017-10-27T12:28:43.114Z,58.69
2017-10-27T12:29:43.102Z,59.08
2017-10-27T12:30:43.775Z,60.13
2017-10-27T12:31:22.093Z,60.80
2017-10-27T12:32:43.100Z,60.32
2017-10-27T12:33:43.098Z,60.16
2017-10-27T12:34:43.095Z,58.91
2017-10-27T12:35:22.087Z,60.06
2017-10-27T12:36:43.089Z,58.91
2017-10-27T12:37:43.087Z,58.81
2017-10-27T12:38:43.087Z,59.58
2017-10-27T12:39:22.075Z,58.91
2017-10-27T12:40:43.079Z,58.50
2017-10-27T12:41:43.075Z,58.12
2017-10-27T12:42:43.080Z,56.87
2017-10-27T12:43:22.067Z,56.90
2017-10-27T12:44:43.151Z,58.72
2017-10-27T12:45:43.074Z,58.24
2017-10-27T12:46:43.060Z,57.38
2017-10-27T12:47:22.052Z,56.90
2017-10-27T12:48:43.062Z,56.81
2017-10-27T12:49:43.058Z,56.52
2017-10-27T12:50:43.067Z,55.08
2017-10-27T12:51:22.045Z,56.13
2017-10-27T12:52:43.046Z,56.93